Time;durP1;ratioP1;P1;durP2;ratioP2;P2;SDS_P1;SDS_P2;PMS_P1;PMS_P2;Temp;Humidity;BMP_temperature;BMP_pressure;BME280_temperature;BME280_humidity;BME280_pressure;Samples;Min_cycle;Max_cycle;Signal;HPM_P1;HPM_P2
2023/10/07 00:00:47;;;;;;;9.93;4.25;;;;;;;;;;5016598;28;20057;-75
2023/10/07 00:03:14;;;;;;;9.18;4.22;;;;;;;;;;5016043;28;20056;-75
2023/10/07 00:05:42;;;;;;;11.63;4.78;;;;;;;;;;5025557;28;20049;-76
2023/10/07 00:08:09;;;;;;;7.40;4.30;;;;;;;;;;5016819;28;20029;-75
2023/10/07 00:10:36;;;;;;;12.60;5.13;;;;;;;;;;5008986;28;20972;-76
2023/10/07 00:13:04;;;;;;;9.70;4.57;;;;;;;;;;5018140;28;20030;-76
2023/10/07 00:15:30;;;;;;;11.98;4.60;;;;;;;;;;5011982;28;20115;-76
2023/10/07 00:18:11;;;;;;;10.13;4.78;;;;;;;;;;5013209;28;20152;-76
2023/10/07 00:20:41;;;;;;;12.00;4.43;;;;;;;;;;5017627;28;20119;-76
2023/10/07 00:23:09;;;;;;;11.98;5.07;;;;;;;;;;5013786;28;20045;-76
2023/10/07 00:25:35;;;;;;;8.88;4.63;;;;;;;;;;5011834;28;20038;-76
2023/10/07 00:28:02;;;;;;;10.90;4.43;;;;;;;;;;5008123;28;20062;-76
2023/10/07 00:30:29;;;;;;;10.15;4.10;;;;;;;;;;5016014;28;20068;-76
2023/10/07 00:32:55;;;;;;;8.32;4.30;;;;;;;;;;5011202;28;20088;-75
2023/10/07 00:35:23;;;;;;;12.38;4.43;;;;;;;;;;5015679;28;20037;-76
2023/10/07 00:37:48;;;;;;;11.63;4.28;;;;;;;;;;5016477;28;20029;-75
2023/10/07 00:40:45;;;;;;;10.07;4.63;;;;;;;;;;5017003;28;20044;-76
2023/10/07 00:43:24;;;;;;;10.68;4.45;;;;;;;;;;5021789;28;20045;-75
2023/10/07 00:45:53;;;;;;;10.30;4.50;;;;;;;;;;5033469;28;20044;-76
2023/10/07 00:48:18;;;;;;;10.75;4.30;;;;;;;;;;5021100;28;20516;-76
2023/10/07 00:50:44;;;;;;;10.90;4.47;;;;;;;;;;5025056;28;20037;-76
2023/10/07 00:53:12;;;;;;;9.38;4.47;;;;;;;;;;5019777;28;20049;-76
2023/10/07 00:55:38;;;;;;;12.07;4.70;;;;;;;;;;5021551;28;20408;-76
2023/10/07 00:58:13;;;;;;;11.63;4.35;;;;;;;;;;5018704;28;20041;-76
2023/10/07 01:06:07;;;;;;;10.50;4.20;;;;;;;;;;5013875;28;20507;-76
2023/10/07 01:08:35;;;;;;;8.32;4.30;;;;;;;;;;5016535;28;20029;-76
2023/10/07 01:13:51;;;;;;;11.07;4.38;;;;;;;;;;5009173;28;20825;-76
2023/10/07 01:19:18;;;;;;;10.07;4.50;;;;;;;;;;5015768;28;20831;-76
2023/10/07 01:21:55;;;;;;;12.90;4.30;;;;;;;;;;5030120;28;20088;-76
2023/10/07 01:27:17;;;;;;;10.88;4.90;;;;;;;;;;5022350;28;20159;-75
2023/10/07 01:29:43;;;;;;;8.65;3.90;;;;;;;;;;5012134;28;20125;-76
2023/10/07 01:32:17;;;;;;;11.73;4.88;;;;;;;;;;5020059;28;20029;-76
2023/10/07 01:34:52;;;;;;;8.20;4.05;;;;;;;;;;5015225;28;20617;-76
2023/10/07 01:37:25;;;;;;;9.82;4.40;;;;;;;;;;5016373;28;20077;-76
2023/10/07 01:39:52;;;;;;;9.02;4.03;;;;;;;;;;5016152;28;20045;-76
2023/10/07 01:42:37;;;;;;;7.18;4.18;;;;;;;;;;5017883;28;20046;-76
2023/10/07 01:45:19;;;;;;;9.85;3.88;;;;;;;;;;5024892;28;20095;-76
2023/10/07 01:47:47;;;;;;;14.77;4.22;;;;;;;;;;5018971;28;20052;-76
2023/10/07 01:50:13;;;;;;;8.75;3.85;;;;;;;;;;5014186;28;20029;-76
2023/10/07 01:52:39;;;;;;;12.73;4.47;;;;;;;;;;5010115;28;20052;-75
2023/10/07 01:55:09;;;;;;;7.82;3.75;;;;;;;;;;5018158;28;20049;-76
2023/10/07 01:57:34;;;;;;;8.40;3.85;;;;;;;;;;5015654;28;20041;-76
2023/10/07 02:00:07;;;;;;;11.80;4.05;;;;;;;;;;5018653;28;20116;-76
2023/10/07 02:02:32;;;;;;;9.07;4.05;;;;;;;;;;5015959;28;20141;-75
2023/10/07 02:04:59;;;;;;;11.98;5.00;;;;;;;;;;5025628;28;20059;-76
2023/10/07 02:07:25;;;;;;;13.45;4.53;;;;;;;;;;5028922;28;20041;-75
2023/10/07 02:09:54;;;;;;;8.40;4.32;;;;;;;;;;5018579;28;20064;-75
2023/10/07 02:12:19;;;;;;;9.35;4.78;;;;;;;;;;5013799;28;20073;-76
2023/10/07 02:14:45;;;;;;;12.18;5.20;;;;;;;;;;5012380;28;20138;-76
2023/10/07 02:17:18;;;;;;;9.63;4.72;;;;;;;;;;5016678;28;20116;-76
2023/10/07 02:19:43;;;;;;;;;;;;;;;;;;5010723;28;20045;-75
2023/10/07 02:22:20;;;;;;;9.52;3.90;;;;;;;;;;5019976;28;20326;-76
2023/10/07 02:24:52;;;;;;;8.05;4.47;;;;;;;;;;5013717;28;20037;-76
2023/10/07 02:27:19;;;;;;;9.05;4.72;;;;;;;;;;5014352;28;20045;-76
2023/10/07 02:29:48;;;;;;;11.35;4.70;;;;;;;;;;5015077;28;20030;-76
2023/10/07 02:32:17;;;;;;;11.18;4.53;;;;;;;;;;5017373;28;20033;-75
2023/10/07 02:34:52;;;;;;;8.43;4.40;;;;;;;;;;5016369;28;20041;-75
2023/10/07 02:37:21;;;;;;;8.35;4.50;;;;;;;;;;5012025;28;20172;-75
2023/10/07 02:39:47;;;;;;;14.02;5.22;;;;;;;;;;5014764;28;20124;-76
2023/10/07 02:42:28;;;;;;;11.35;4.63;;;;;;;;;;5013324;28;20065;-75
2023/10/07 02:48:00;;;;;;;9.50;4.55;;;;;;;;;;5007584;28;20083;-76
2023/10/07 02:50:26;;;;;;;8.45;4.05;;;;;;;;;;5016030;28;20036;-76
2023/10/07 02:52:52;;;;;;;9.90;4.80;;;;;;;;;;5016245;28;20049;-75
2023/10/07 02:57:46;;;;;;;8.15;4.60;;;;;;;;;;5015636;28;20049;-75
2023/10/07 03:00:29;;;;;;;11.27;4.55;;;;;;;;;;5013493;28;20081;-75
2023/10/07 03:03:10;;;;;;;8.02;4.05;;;;;;;;;;5015289;28;20045;-75
2023/10/07 03:05:43;;;;;;;12.57;4.70;;;;;;;;;;5015157;28;20522;-77
2023/10/07 03:08:19;;;;;;;12.02;4.80;;;;;;;;;;5035837;28;20041;-76
2023/10/07 03:10:54;;;;;;;7.10;4.40;;;;;;;;;;5012442;28;20104;-76
2023/10/07 03:13:20;;;;;;;9.23;5.25;;;;;;;;;;5030965;28;20426;-76
2023/10/07 03:15:59;;;;;;;11.88;4.55;;;;;;;;;;5013196;28;20076;-76
2023/10/07 03:18:30;;;;;;;9.52;4.20;;;;;;;;;;5011834;28;20062;-76
2023/10/07 03:21:11;;;;;;;13.85;4.15;;;;;;;;;;5013963;28;20041;-76
2023/10/07 03:23:47;;;;;;;8.73;4.07;;;;;;;;;;5014395;28;20530;-75
2023/10/07 03:26:17;;;;;;;9.55;3.97;;;;;;;;;;5014637;28;20057;-76
2023/10/07 03:28:53;;;;;;;8.55;4.10;;;;;;;;;;5025930;28;20088;-76
2023/10/07 03:31:20;;;;;;;15.02;4.97;;;;;;;;;;5038345;28;20075;-76
2023/10/07 03:33:58;;;;;;;10.55;4.20;;;;;;;;;;5016683;28;20037;-76
2023/10/07 03:38:55;;;;;;;12.15;4.63;;;;;;;;;;5014294;28;20037;-76
2023/10/07 03:41:21;;;;;;;12.52;4.63;;;;;;;;;;5018273;28;20163;-76
2023/10/07 03:43:47;;;;;;;9.07;4.53;;;;;;;;;;5029919;28;20025;-76
2023/10/07 03:46:15;;;;;;;9.15;4.78;;;;;;;;;;5014111;28;20427;-76
2023/10/07 03:48:49;;;;;;;10.38;4.93;;;;;;;;;;5018889;28;20067;-76
2023/10/07 03:51:14;;;;;;;11.52;6.07;;;;;;;;;;5013492;28;20033;-76
2023/10/07 03:53:46;;;;;;;12.07;5.28;;;;;;;;;;5018642;28;20037;-76
2023/10/07 03:56:12;;;;;;;13.18;5.95;;;;;;;;;;5014032;28;20022;-76
2023/10/07 03:58:41;;;;;;;9.45;5.22;;;;;;;;;;5032614;28;20018;-76
2023/10/07 04:01:16;;;;;;;10.55;5.25;;;;;;;;;;5011794;28;20617;-76
2023/10/07 04:03:52;;;;;;;15.45;5.47;;;;;;;;;;5012356;28;20116;-76
2023/10/07 04:06:30;;;;;;;10.52;5.25;;;;;;;;;;5016048;28;20727;-76
2023/10/07 04:09:05;;;;;;;10.55;5.10;;;;;;;;;;5012899;28;20049;-76
2023/10/07 04:11:31;;;;;;;11.90;5.43;;;;;;;;;;5016278;28;20057;-76
2023/10/07 04:13:57;;;;;;;14.45;5.68;;;;;;;;;;5018836;28;20513;-75
2023/10/07 04:16:23;;;;;;;9.55;5.25;;;;;;;;;;5011634;28;20046;-76
2023/10/07 04:21:42;;;;;;;14.03;5.57;;;;;;;;;;5015641;28;20099;-76
2023/10/07 04:24:11;;;;;;;11.25;5.35;;;;;;;;;;5021994;28;20034;-76
2023/10/07 04:26:39;;;;;;;8.85;5.22;;;;;;;;;;5017800;28;20152;-76
2023/10/07 04:29:21;;;;;;;10.52;5.80;;;;;;;;;;5029968;28;20513;-76
2023/10/07 04:31:52;;;;;;;11.25;5.75;;;;;;;;;;5015221;28;20124;-76
2023/10/07 04:34:26;;;;;;;11.43;5.30;;;;;;;;;;5013225;28;20042;-76
2023/10/07 04:39:31;;;;;;;13.88;5.47;;;;;;;;;;5016862;28;20052;-76
2023/10/07 04:42:03;;;;;;;13.10;4.90;;;;;;;;;;5022017;28;20034;-76
2023/10/07 04:45:24;;;;;;;9.65;4.88;;;;;;;;;;5017043;28;20049;-75
2023/10/07 04:47:38;;;;;;;;;;;;;;;;;;5017093;28;20042;-76
2023/10/07 04:52:39;;;;;;;13.25;6.03;;;;;;;;;;5026421;28;20115;-76
2023/10/07 04:55:11;;;;;;;11.32;5.50;;;;;;;;;;5030508;28;20068;-76
2023/10/07 04:57:44;;;;;;;12.80;5.45;;;;;;;;;;5031270;28;20831;-76
2023/10/07 05:00:30;;;;;;;10.02;5.28;;;;;;;;;;5008524;28;20535;-76
2023/10/07 05:02:59;;;;;;;10.13;5.30;;;;;;;;;;5014664;28;20041;-76
2023/10/07 05:05:33;;;;;;;14.63;5.75;;;;;;;;;;5015143;28;20025;-76
2023/10/07 05:08:08;;;;;;;14.30;5.25;;;;;;;;;;5014397;28;20026;-76
2023/10/07 05:10:39;;;;;;;13.43;5.57;;;;;;;;;;5019822;28;20046;-76
2023/10/07 05:13:08;;;;;;;9.18;5.03;;;;;;;;;;5020354;28;20040;-76
2023/10/07 05:15:38;;;;;;;15.45;5.60;;;;;;;;;;5016467;28;20587;-77
2023/10/07 05:18:04;;;;;;;15.65;6.20;;;;;;;;;;5018705;28;20038;-76
2023/10/07 05:20:33;;;;;;;13.70;5.95;;;;;;;;;;5036227;28;20034;-76
2023/10/07 05:23:02;;;;;;;13.25;5.70;;;;;;;;;;5022521;28;20025;-76
2023/10/07 05:25:32;;;;;;;10.65;5.65;;;;;;;;;;5014806;28;20057;-75
2023/10/07 05:27:57;;;;;;;13.13;6.60;;;;;;;;;;5016695;28;20065;-76
2023/10/07 05:30:23;;;;;;;13.77;6.32;;;;;;;;;;5017325;28;20065;-76
2023/10/07 05:32:48;;;;;;;11.50;5.78;;;;;;;;;;5031580;28;20038;-77
2023/10/07 05:35:15;;;;;;;15.80;6.15;;;;;;;;;;5013180;28;20049;-76
2023/10/07 05:37:42;;;;;;;10.93;5.88;;;;;;;;;;5014980;28;20044;-76
2023/10/07 05:40:08;;;;;;;13.82;5.75;;;;;;;;;;5020904;28;20041;-76
2023/10/07 05:42:33;;;;;;;12.95;5.35;;;;;;;;;;5021297;28;20418;-76
2023/10/07 05:44:59;;;;;;;17.98;6.22;;;;;;;;;;5021391;28;20038;-77
2023/10/07 05:47:25;;;;;;;14.10;5.82;;;;;;;;;;5014180;28;20151;-76
2023/10/07 05:49:55;;;;;;;16.05;6.40;;;;;;;;;;5012944;28;20021;-76
2023/10/07 05:52:21;;;;;;;15.70;6.43;;;;;;;;;;5015195;28;20053;-76
2023/10/07 05:54:46;;;;;;;17.55;6.30;;;;;;;;;;5022102;28;20052;-75
2023/10/07 05:57:13;;;;;;;18.73;6.93;;;;;;;;;;5018947;28;20037;-76
2023/10/07 05:59:42;;;;;;;16.98;6.20;;;;;;;;;;5012283;28;20109;-76
2023/10/07 06:02:12;;;;;;;13.23;6.28;;;;;;;;;;5020537;28;20521;-75
2023/10/07 06:04:39;;;;;;;14.63;6.25;;;;;;;;;;5014148;28;20073;-76
2023/10/07 06:07:07;;;;;;;11.85;5.82;;;;;;;;;;5012431;28;20053;-77
2023/10/07 06:09:33;;;;;;;11.05;5.95;;;;;;;;;;5023949;28;20888;-77
2023/10/07 06:11:59;;;;;;;12.30;5.90;;;;;;;;;;5016063;28;20068;-77
2023/10/07 06:14:25;;;;;;;14.68;6.18;;;;;;;;;;5022872;28;20025;-77
2023/10/07 06:16:52;;;;;;;13.55;5.72;;;;;;;;;;5046776;28;20117;-76
2023/10/07 06:19:18;;;;;;;13.93;6.65;;;;;;;;;;5032489;28;20479;-76
2023/10/07 06:21:52;;;;;;;16.13;6.20;;;;;;;;;;5020304;28;20044;-76
2023/10/07 06:24:21;;;;;;;17.67;7.07;;;;;;;;;;5011420;28;20038;-76
2023/10/07 06:26:53;;;;;;;16.83;6.47;;;;;;;;;;5018201;28;20050;-76
2023/10/07 06:29:19;;;;;;;15.90;6.72;;;;;;;;;;5017236;28;20038;-75
2023/10/07 06:31:55;;;;;;;18.42;6.65;;;;;;;;;;5014277;28;20033;-76
2023/10/07 06:34:32;;;;;;;16.50;6.18;;;;;;;;;;5017131;28;20040;-76
2023/10/07 06:36:58;;;;;;;16.05;5.97;;;;;;;;;;5019729;28;20148;-76
2023/10/07 06:39:27;;;;;;;14.57;6.53;;;;;;;;;;5017278;28;20955;-76
2023/10/07 06:41:55;;;;;;;16.15;7.15;;;;;;;;;;5033192;28;20055;-76
2023/10/07 06:44:23;;;;;;;15.82;6.30;;;;;;;;;;5016297;28;20029;-76
2023/10/07 06:46:54;;;;;;;14.80;7.13;;;;;;;;;;5010018;28;20135;-76
2023/10/07 06:49:20;;;;;;;17.23;6.60;;;;;;;;;;5008694;28;20037;-76
2023/10/07 06:51:56;;;;;;;16.83;6.78;;;;;;;;;;5011600;28;20060;-76
2023/10/07 06:54:47;;;;;;;14.95;6.50;;;;;;;;;;5013118;28;20132;-76
2023/10/07 06:57:13;;;;;;;13.13;7.28;;;;;;;;;;5012655;28;20052;-76
2023/10/07 06:59:45;;;;;;;17.27;6.85;;;;;;;;;;5009375;28;20041;-76
2023/10/07 07:02:16;;;;;;;15.45;7.22;;;;;;;;;;5022304;28;20128;-76
2023/10/07 07:04:43;;;;;;;13.10;6.57;;;;;;;;;;5011561;28;20053;-76
2023/10/07 07:07:16;;;;;;;26.95;11.43;;;;;;;;;;5011334;28;20041;-76
2023/10/07 07:09:42;;;;;;;17.20;7.47;;;;;;;;;;5009067;28;20037;-76
2023/10/07 07:12:09;;;;;;;25.70;9.63;;;;;;;;;;5011906;28;20292;-76
2023/10/07 07:14:51;;;;;;;32.63;14.95;;;;;;;;;;5011499;28;20057;-76
2023/10/07 07:17:29;;;;;;;17.67;7.57;;;;;;;;;;5012664;28;20087;-75
2023/10/07 07:22:35;;;;;;;14.02;7.57;;;;;;;;;;5007800;28;20041;-75
2023/10/07 07:25:07;;;;;;;16.42;7.53;;;;;;;;;;5011202;28;20052;-75
2023/10/07 07:27:34;;;;;;;20.20;8.90;;;;;;;;;;5018306;28;20495;-75
2023/10/07 07:30:17;;;;;;;14.95;8.00;;;;;;;;;;5013428;28;20116;-75
2023/10/07 07:32:44;;;;;;;14.63;6.60;;;;;;;;;;5002211;28;20051;-75
2023/10/07 07:35:10;;;;;;;18.20;7.70;;;;;;;;;;5014194;28;20036;-74
2023/10/07 07:37:36;;;;;;;17.15;7.30;;;;;;;;;;5017080;28;20046;-75
2023/10/07 07:40:28;;;;;;;14.13;6.68;;;;;;;;;;5030104;28;20044;-75
2023/10/07 07:42:55;;;;;;;13.23;6.93;;;;;;;;;;5022180;28;20156;-75
2023/10/07 07:45:27;;;;;;;21.33;7.35;;;;;;;;;;5009851;28;20099;-74
2023/10/07 07:47:53;;;;;;;13.48;7.25;;;;;;;;;;5019507;28;20033;-75
2023/10/07 07:50:19;;;;;;;18.25;7.53;;;;;;;;;;5013826;28;20580;-74
2023/10/07 07:52:49;;;;;;;14.55;6.93;;;;;;;;;;5013420;28;20054;-74
2023/10/07 07:55:16;;;;;;;14.23;6.70;;;;;;;;;;5015957;28;20088;-74
2023/10/07 07:57:44;;;;;;;12.63;6.57;;;;;;;;;;5014720;28;20072;-74
2023/10/07 08:00:22;;;;;;;13.68;7.32;;;;;;;;;;5009957;28;20038;-74
2023/10/07 08:02:50;;;;;;;13.98;6.53;;;;;;;;;;5012315;28;20079;-74
2023/10/07 08:05:16;;;;;;;14.65;6.95;;;;;;;;;;5014457;28;20036;-74
2023/10/07 08:07:43;;;;;;;14.32;7.57;;;;;;;;;;5013920;28;20038;-74
2023/10/07 08:10:10;;;;;;;14.38;7.00;;;;;;;;;;5019779;28;20485;-74
2023/10/07 08:12:37;;;;;;;14.15;6.93;;;;;;;;;;5014731;28;20496;-74
2023/10/07 08:17:39;;;;;;;14.23;7.00;;;;;;;;;;5013531;28;20569;-75
2023/10/07 08:20:15;;;;;;;14.15;7.20;;;;;;;;;;5014055;28;20049;-74
2023/10/07 08:22:46;;;;;;;13.55;6.97;;;;;;;;;;5012171;28;20045;-74
2023/10/07 08:25:36;;;;;;;14.13;7.40;;;;;;;;;;5027026;28;20041;-74
2023/10/07 08:28:18;;;;;;;13.82;7.07;;;;;;;;;;5014045;28;20045;-74
2023/10/07 08:30:49;;;;;;;16.27;6.60;;;;;;;;;;5015208;28;20044;-75
2023/10/07 08:33:15;;;;;;;17.40;7.00;;;;;;;;;;5022999;28;20065;-75
2023/10/07 08:35:43;;;;;;;15.68;6.15;;;;;;;;;;5010787;28;20083;-75
2023/10/07 08:38:37;;;;;;;14.15;6.53;;;;;;;;;;5016997;28;20815;-74
2023/10/07 08:41:04;;;;;;;14.35;6.32;;;;;;;;;;5016947;28;20058;-75
2023/10/07 08:43:37;;;;;;;11.38;6.10;;;;;;;;;;5014041;28;20045;-73
2023/10/07 08:46:07;;;;;;;19.13;7.30;;;;;;;;;;5019032;28;20059;-73
2023/10/07 08:48:38;;;;;;;15.82;6.88;;;;;;;;;;5011995;28;20439;-73
2023/10/07 08:51:10;;;;;;;15.93;6.65;;;;;;;;;;5018781;28;20049;-73
2023/10/07 08:53:37;;;;;;;14.88;6.28;;;;;;;;;;5017995;28;20121;-74
2023/10/07 08:56:09;;;;;;;11.13;6.43;;;;;;;;;;5021660;28;20029;-74
2023/10/07 08:58:38;;;;;;;16.02;6.57;;;;;;;;;;5015056;28;20149;-74
2023/10/07 09:01:07;;;;;;;14.55;6.45;;;;;;;;;;5021559;28;20053;-74
2023/10/07 09:03:38;;;;;;;19.83;7.70;;;;;;;;;;5031011;28;20045;-74
2023/10/07 09:06:06;;;;;;;13.18;6.75;;;;;;;;;;5022772;28;20475;-74
2023/10/07 09:08:33;;;;;;;13.40;6.50;;;;;;;;;;5021498;28;20728;-74
2023/10/07 09:10:59;;;;;;;15.20;6.63;;;;;;;;;;5012537;28;20103;-74
2023/10/07 09:13:28;;;;;;;24.15;7.32;;;;;;;;;;5019485;28;20056;-74
2023/10/07 09:15:55;;;;;;;14.80;7.03;;;;;;;;;;5016821;28;20049;-74
2023/10/07 09:18:29;;;;;;;16.58;7.05;;;;;;;;;;5014411;28;20073;-73
2023/10/07 09:20:57;;;;;;;14.32;6.82;;;;;;;;;;5017044;28;20461;-74
2023/10/07 09:23:35;;;;;;;12.07;6.82;;;;;;;;;;5010490;28;20034;-74
2023/10/07 09:26:16;;;;;;;13.32;6.50;;;;;;;;;;5023351;28;20076;-74
2023/10/07 09:28:46;;;;;;;18.85;6.65;;;;;;;;;;5015297;28;20411;-74
2023/10/07 09:31:15;;;;;;;11.63;5.70;;;;;;;;;;5033306;28;20034;-74
2023/10/07 09:33:41;;;;;;;10.43;6.45;;;;;;;;;;5018519;28;20095;-74
2023/10/07 09:36:52;;;;;;;11.00;6.07;;;;;;;;;;5013135;28;20654;-74
2023/10/07 09:41:43;;;;;;;13.80;5.68;;;;;;;;;;5015815;28;22584;-74
2023/10/07 09:44:26;;;;;;;11.25;5.18;;;;;;;;;;5016054;28;20022;-73
2023/10/07 09:46:52;;;;;;;10.60;5.20;;;;;;;;;;5017326;28;20046;-74
2023/10/07 09:49:20;;;;;;;9.73;5.43;;;;;;;;;;5018738;28;20041;-74
2023/10/07 09:51:50;;;;;;;11.35;5.47;;;;;;;;;;5016717;28;20041;-74
2023/10/07 09:54:49;;;;;;;10.90;5.38;;;;;;;;;;5016668;28;20038;-74
2023/10/07 09:57:19;;;;;;;10.27;5.60;;;;;;;;;;5012223;28;20048;-72
2023/10/07 10:00:49;;;;;;;10.57;5.38;;;;;;;;;;5016344;28;20045;-73
2023/10/07 10:03:12;;;;;;;9.30;5.22;;;;;;;;;;5023317;28;20038;-73
2023/10/07 10:05:58;;;;;;;10.15;5.35;;;;;;;;;;5023154;28;20454;-74
2023/10/07 10:08:55;;;;;;;12.00;5.38;;;;;;;;;;5031832;28;20030;-74
2023/10/07 10:11:31;;;;;;;12.05;5.68;;;;;;;;;;5013987;28;20062;-74
2023/10/07 10:16:51;;;;;;;12.35;5.47;;;;;;;;;;5010199;28;20435;-74
2023/10/07 10:19:25;;;;;;;14.10;5.57;;;;;;;;;;5012576;28;20136;-74
2023/10/07 10:21:52;;;;;;;9.85;4.32;;;;;;;;;;5017541;28;20527;-74
2023/10/07 10:24:23;;;;;;;9.93;4.45;;;;;;;;;;5019904;28;20125;-73
2023/10/07 10:26:50;;;;;;;13.07;5.13;;;;;;;;;;5026224;28;20056;-74
2023/10/07 10:29:25;;;;;;;13.43;4.97;;;;;;;;;;5025107;28;20060;-74
2023/10/07 10:31:51;;;;;;;10.32;4.50;;;;;;;;;;5016239;28;20422;-74
2023/10/07 10:34:17;;;;;;;10.18;4.50;;;;;;;;;;5013611;28;20132;-74
2023/10/07 10:36:55;;;;;;;10.93;4.22;;;;;;;;;;5014448;28;20154;-74
2023/10/07 10:39:25;;;;;;;9.38;4.22;;;;;;;;;;5014616;28;20052;-74
2023/10/07 10:41:53;;;;;;;10.40;4.90;;;;;;;;;;5015000;28;20536;-75
2023/10/07 10:44:20;;;;;;;9.20;4.88;;;;;;;;;;5017192;28;20044;-76
2023/10/07 10:46:49;;;;;;;10.52;4.65;;;;;;;;;;5016451;28;21819;-75
2023/10/07 10:49:24;;;;;;;8.68;3.97;;;;;;;;;;5014925;28;20703;-75
2023/10/07 10:51:54;;;;;;;8.02;3.92;;;;;;;;;;5014292;28;20200;-75
2023/10/07 10:54:22;;;;;;;11.15;4.45;;;;;;;;;;5017952;28;20037;-75
2023/10/07 10:56:47;;;;;;;10.50;4.25;;;;;;;;;;5017052;28;20041;-75
2023/10/07 10:59:14;;;;;;;7.32;3.33;;;;;;;;;;5015190;28;20449;-75
2023/10/07 11:01:44;;;;;;;10.45;4.70;;;;;;;;;;5016574;28;20167;-74
2023/10/07 11:04:12;;;;;;;23.17;4.30;;;;;;;;;;5013285;28;20112;-73
2023/10/07 11:06:39;;;;;;;11.45;3.67;;;;;;;;;;5012247;28;20049;-73
2023/10/07 11:09:05;;;;;;;7.25;5.22;;;;;;;;;;5015486;28;20139;-73
2023/10/07 11:11:35;;;;;;;6.75;3.58;;;;;;;;;;5016547;28;20404;-73
2023/10/07 11:14:05;;;;;;;8.30;3.80;;;;;;;;;;5014957;28;20029;-73
2023/10/07 11:16:31;;;;;;;6.63;3.13;;;;;;;;;;5013521;28;20142;-73
2023/10/07 11:18:57;;;;;;;8.70;3.67;;;;;;;;;;5015762;28;20133;-73
2023/10/07 11:21:23;;;;;;;6.22;3.67;;;;;;;;;;5018188;28;20785;-73
2023/10/07 11:23:52;;;;;;;5.95;3.60;;;;;;;;;;5014658;28;20076;-73
2023/10/07 11:26:21;;;;;;;7.50;3.28;;;;;;;;;;5014983;28;20414;-73
2023/10/07 11:28:48;;;;;;;6.95;3.72;;;;;;;;;;5014920;28;20038;-74
2023/10/07 11:31:20;;;;;;;6.85;3.78;;;;;;;;;;5012820;28;20037;-73
2023/10/07 11:33:50;;;;;;;6.40;3.50;;;;;;;;;;5013755;28;20056;-73
2023/10/07 11:36:16;;;;;;;7.65;3.67;;;;;;;;;;5007774;28;20522;-73
2023/10/07 11:38:42;;;;;;;8.98;3.85;;;;;;;;;;5014024;28;20511;-73
2023/10/07 11:41:10;;;;;;;7.50;3.58;;;;;;;;;;5016179;28;20040;-73
2023/10/07 11:43:48;;;;;;;6.28;3.55;;;;;;;;;;5018681;28;20041;-73
2023/10/07 11:46:13;;;;;;;7.05;3.15;;;;;;;;;;5019373;28;20037;-73
2023/10/07 11:48:45;;;;;;;7.95;3.35;;;;;;;;;;5026635;28;20928;-73
2023/10/07 11:51:11;;;;;;;8.88;3.78;;;;;;;;;;5034730;28;20097;-73
2023/10/07 11:53:39;;;;;;;7.53;3.35;;;;;;;;;;5019608;28;20794;-75
2023/10/07 11:56:11;;;;;;;6.57;3.30;;;;;;;;;;5017292;28;20059;-74
2023/10/07 11:58:37;;;;;;;15.50;4.05;;;;;;;;;;5015389;28;20102;-75
2023/10/07 12:01:07;;;;;;;6.38;3.63;;;;;;;;;;5018162;28;20782;-75
2023/10/07 12:03:32;;;;;;;6.13;3.05;;;;;;;;;;5013846;28;20698;-75
2023/10/07 12:05:58;;;;;;;7.03;3.00;;;;;;;;;;5017515;28;20161;-75
2023/10/07 12:08:24;;;;;;;7.63;3.10;;;;;;;;;;5017079;28;20459;-75
2023/10/07 12:10:50;;;;;;;7.55;3.08;;;;;;;;;;5017337;28;20025;-75
2023/10/07 12:13:15;;;;;;;10.00;3.40;;;;;;;;;;5016575;28;20038;-75
2023/10/07 12:15:42;;;;;;;8.07;3.30;;;;;;;;;;5015104;28;20052;-75
2023/10/07 12:18:09;;;;;;;8.95;2.97;;;;;;;;;;5013297;28;20049;-75
2023/10/07 12:20:34;;;;;;;8.13;3.33;;;;;;;;;;5020028;28;20033;-75
2023/10/07 12:23:00;;;;;;;5.43;3.28;;;;;;;;;;5012807;28;20506;-75
2023/10/07 12:25:26;;;;;;;5.05;2.95;;;;;;;;;;5013303;28;20079;-75
2023/10/07 12:27:51;;;;;;;7.38;3.25;;;;;;;;;;5013469;28;20435;-75
2023/10/07 12:30:26;;;;;;;5.93;3.35;;;;;;;;;;5012826;28;20099;-75
2023/10/07 12:32:52;;;;;;;5.95;2.95;;;;;;;;;;5018806;28;20048;-75
2023/10/07 12:35:19;;;;;;;8.38;3.53;;;;;;;;;;5008947;28;20034;-75
2023/10/07 12:37:48;;;;;;;6.45;3.03;;;;;;;;;;5016625;28;20653;-75
2023/10/07 12:40:17;;;;;;;7.18;3.30;;;;;;;;;;5017907;28;20065;-75
2023/10/07 12:42:46;;;;;;;6.07;3.10;;;;;;;;;;5019098;28;20045;-75
2023/10/07 12:45:11;;;;;;;16.20;4.28;;;;;;;;;;5022999;28;20136;-75
2023/10/07 12:47:43;;;;;;;5.97;3.10;;;;;;;;;;5025038;28;20116;-75
2023/10/07 12:53:10;;;;;;;6.90;3.42;;;;;;;;;;5010081;28;20045;-74
2023/10/07 12:55:36;;;;;;;5.45;3.17;;;;;;;;;;5016047;28;20137;-73
2023/10/07 12:58:05;;;;;;;7.80;3.83;;;;;;;;;;5020843;28;20689;-73
2023/10/07 13:00:33;;;;;;;6.00;3.03;;;;;;;;;;5014720;28;20041;-73
2023/10/07 13:03:04;;;;;;;8.25;3.25;;;;;;;;;;5013106;28;20049;-72
2023/10/07 13:05:32;;;;;;;6.00;3.10;;;;;;;;;;5026473;28;20491;-72
2023/10/07 13:07:59;;;;;;;7.13;3.10;;;;;;;;;;5017942;28;20028;-72
2023/10/07 13:10:26;;;;;;;5.78;2.80;;;;;;;;;;5012344;28;20077;-72
2023/10/07 13:12:55;;;;;;;6.28;3.30;;;;;;;;;;5030284;28;20045;-72
2023/10/07 13:15:30;;;;;;;7.18;3.17;;;;;;;;;;5021409;28;20599;-71
2023/10/07 13:17:58;;;;;;;6.25;3.15;;;;;;;;;;5027056;28;20546;-73
2023/10/07 13:20:24;;;;;;;6.00;3.33;;;;;;;;;;5015974;28;20061;-72
2023/10/07 13:22:50;;;;;;;5.18;2.97;;;;;;;;;;5010124;28;20076;-72
2023/10/07 13:25:18;;;;;;;5.28;2.90;;;;;;;;;;5012615;28;20152;-73
2023/10/07 13:27:43;;;;;;;5.25;3.08;;;;;;;;;;5008669;28;20096;-73
2023/10/07 13:30:13;;;;;;;10.20;4.32;;;;;;;;;;5018323;28;20512;-75
2023/10/07 13:32:40;;;;;;;11.40;3.35;;;;;;;;;;5017814;28;20029;-75
2023/10/07 13:35:09;;;;;;;7.72;3.00;;;;;;;;;;5017482;28;20028;-75
2023/10/07 13:37:37;;;;;;;6.95;2.85;;;;;;;;;;5024066;28;20039;-75
2023/10/07 13:40:07;;;;;;;6.18;3.08;;;;;;;;;;5015796;28;20044;-75
2023/10/07 13:42:32;;;;;;;10.00;3.05;;;;;;;;;;5033227;28;20037;-75
2023/10/07 13:45:03;;;;;;;5.50;3.10;;;;;;;;;;5010580;28;20045;-74
2023/10/07 13:47:31;;;;;;;5.78;2.75;;;;;;;;;;5013357;28;20033;-75
2023/10/07 13:49:57;;;;;;;7.43;3.00;;;;;;;;;;5013532;28;20028;-75
2023/10/07 13:52:22;;;;;;;8.27;3.28;;;;;;;;;;5021183;28;20061;-75
2023/10/07 13:55:13;;;;;;;6.10;2.83;;;;;;;;;;5009934;28;20057;-75
2023/10/07 13:57:34;;;;;;;4.88;3.00;;;;;;;;;;5011833;28;20722;-74
2023/10/07 14:00:01;;;;;;;4.45;2.83;;;;;;;;;;5008564;28;20048;-74
2023/10/07 14:02:27;;;;;;;6.50;3.05;;;;;;;;;;5019321;28;20659;-75
2023/10/07 14:04:57;;;;;;;6.75;3.33;;;;;;;;;;5005304;28;20467;-74
2023/10/07 14:07:23;;;;;;;7.07;3.22;;;;;;;;;;5010496;28;20072;-74
2023/10/07 14:09:49;;;;;;;4.18;2.95;;;;;;;;;;5010804;28;20045;-75
2023/10/07 14:12:16;;;;;;;4.97;3.00;;;;;;;;;;5011251;28;20055;-75
2023/10/07 14:14:43;;;;;;;6.10;2.80;;;;;;;;;;5004194;28;20076;-74
2023/10/07 14:17:09;;;;;;;5.55;2.63;;;;;;;;;;5016799;28;20033;-75
2023/10/07 14:19:37;;;;;;;4.85;2.95;;;;;;;;;;5017300;28;20116;-75
2023/10/07 14:22:04;;;;;;;7.30;3.13;;;;;;;;;;5015803;28;20029;-74
2023/10/07 14:24:30;;;;;;;6.63;2.88;;;;;;;;;;5017963;28;20056;-74
2023/10/07 14:26:56;;;;;;;6.82;3.13;;;;;;;;;;5017783;28;20092;-75
2023/10/07 14:29:22;;;;;;;8.88;3.80;;;;;;;;;;5018910;28;20515;-75
2023/10/07 14:31:48;;;;;;;6.20;3.08;;;;;;;;;;5018149;28;20084;-75
2023/10/07 14:34:14;;;;;;;8.57;3.63;;;;;;;;;;5021818;28;20061;-74
2023/10/07 14:36:40;;;;;;;6.82;3.05;;;;;;;;;;5037286;28;20069;-74
2023/10/07 14:39:12;;;;;;;7.93;3.33;;;;;;;;;;5023704;28;20455;-75
2023/10/07 14:41:39;;;;;;;6.78;3.00;;;;;;;;;;5018522;28;20033;-75
2023/10/07 14:44:04;;;;;;;7.93;3.08;;;;;;;;;;5015017;28;20033;-74
2023/10/07 14:46:30;;;;;;;6.32;3.13;;;;;;;;;;5014191;28;20037;-75
2023/10/07 14:48:57;;;;;;;4.95;3.13;;;;;;;;;;5016893;28;20123;-73
2023/10/07 14:51:22;;;;;;;7.07;3.13;;;;;;;;;;5017078;28;20045;-73
2023/10/07 14:53:48;;;;;;;7.72;2.92;;;;;;;;;;5031709;28;20037;-73
2023/10/07 14:56:16;;;;;;;9.25;3.28;;;;;;;;;;5011695;28;20060;-74
2023/10/07 14:58:42;;;;;;;5.47;2.83;;;;;;;;;;5013750;28;20042;-74
2023/10/07 15:01:12;;;;;;;5.07;2.85;;;;;;;;;;5017092;28;20095;-74
2023/10/07 15:03:38;;;;;;;5.07;2.72;;;;;;;;;;5014358;28;20038;-74
2023/10/07 15:06:11;;;;;;;5.47;3.28;;;;;;;;;;5012205;28;20172;-74
2023/10/07 15:08:38;;;;;;;7.45;3.38;;;;;;;;;;5015293;28;20827;-74
2023/10/07 15:11:05;;;;;;;6.50;2.60;;;;;;;;;;5017097;28;20026;-74
2023/10/07 15:13:33;;;;;;;5.88;3.17;;;;;;;;;;5013928;28;20431;-74
2023/10/07 15:16:11;;;;;;;5.35;2.60;;;;;;;;;;5014866;28;20533;-74
2023/10/07 15:18:46;;;;;;;5.88;2.80;;;;;;;;;;5016940;28;20041;-74
2023/10/07 15:21:11;;;;;;;6.43;2.88;;;;;;;;;;5010516;28;20053;-74
2023/10/07 15:23:38;;;;;;;6.45;3.10;;;;;;;;;;5011502;28;20037;-74
2023/10/07 15:26:11;;;;;;;6.35;3.13;;;;;;;;;;5014271;28;20120;-74
2023/10/07 15:28:38;;;;;;;7.35;3.00;;;;;;;;;;5017118;28;20040;-74
2023/10/07 15:31:04;;;;;;;5.25;2.83;;;;;;;;;;5013412;28;20523;-74
2023/10/07 15:33:30;;;;;;;4.95;2.85;;;;;;;;;;5009317;28;20056;-74
2023/10/07 15:35:56;;;;;;;6.20;2.53;;;;;;;;;;5011580;28;20843;-73